Time;durP1;ratioP1;P1;durP2;ratioP2;P2;SDS_P1;SDS_P2;PMS_P1;PMS_P2;Temp;Humidity;BMP_temperature;BMP_pressure;BME280_temperature;BME280_humidity;BME280_pressure;Samples;Min_cycle;Max_cycle;Signal;HPM_P1;HPM_P2
2023/11/19 00:00:15;;;;;;;0.90;0.70;;;;;;;6.48;100.00;101597.78;2094522;28;20196;-70
2023/11/19 00:01:16;;;;;;;1.63;1.02;;;;;;;6.17;100.00;101552.31;2096783;28;20186;-70
2023/11/19 00:02:16;;;;;;;1.10;0.80;;;;;;;6.48;100.00;101603.28;2097466;28;20241;-70
2023/11/19 00:03:17;;;;;;;1.10;0.90;;;;;;;6.48;100.00;101603.28;2097137;28;20183;-70
2023/11/19 00:04:18;;;;;;;0.87;0.60;;;;;;;6.39;100.00;101589.84;2095787;28;20323;-70
2023/11/19 00:05:18;;;;;;;1.87;0.60;;;;;;;6.47;100.00;101626.50;2089119;28;20423;-70
2023/11/19 00:06:19;;;;;;;1.83;0.70;;;;;;;5.92;100.00;101518.25;2089248;28;20187;-70
2023/11/19 00:07:20;;;;;;;0.97;0.80;;;;;;;5.71;100.00;101485.03;2095780;28;20190;-70
2023/11/19 00:08:20;;;;;;;0.73;0.57;;;;;;;6.42;100.00;101593.78;2092088;28;20188;-70
2023/11/19 00:09:20;;;;;;;1.33;0.70;;;;;;;6.45;100.00;101595.78;2089178;28;20202;-70
2023/11/19 00:10:21;;;;;;;1.10;0.80;;;;;;;6.38;100.00;101580.00;2091670;28;20191;-70
2023/11/19 00:11:22;;;;;;;1.30;0.80;;;;;;;6.52;100.00;101595.84;2097462;28;20194;-70
2023/11/19 00:12:22;;;;;;;1.30;0.73;;;;;;;6.50;100.00;101587.16;2097433;28;20657;-70
2023/11/19 00:13:23;;;;;;;1.43;0.90;;;;;;;6.53;100.00;101584.47;2097205;28;20256;-70
2023/11/19 00:14:25;;;;;;;1.87;0.90;;;;;;;6.57;100.00;101589.97;2089462;28;20203;-70
2023/11/19 00:15:25;;;;;;;0.88;0.80;;;;;;;6.45;100.00;101563.53;2095042;28;20199;-70
2023/11/19 00:16:26;;;;;;;1.40;1.00;;;;;;;6.60;100.00;101580.94;2097310;28;20675;-70
2023/11/19 00:17:27;;;;;;;1.13;0.90;;;;;;;6.66;100.00;101591.22;2097332;28;20191;-70
2023/11/19 00:18:27;;;;;;;1.23;0.90;;;;;;;6.71;100.00;101592.84;2094511;28;20201;-70
2023/11/19 00:19:27;;;;;;;1.50;0.90;;;;;;;6.74;100.00;101598.38;2089284;28;20184;-70
2023/11/19 00:20:28;;;;;;;2.23;1.07;;;;;;;6.76;100.00;101603.50;2089089;28;20176;-70
2023/11/19 00:21:29;;;;;;;1.02;0.75;;;;;;;6.77;100.00;101596.81;2097675;28;20179;-69
2023/11/19 00:22:29;;;;;;;1.17;0.77;;;;;;;6.32;100.00;101525.66;2097699;28;20172;-69
2023/11/19 00:23:30;;;;;;;1.10;0.73;;;;;;;6.70;100.00;101591.25;2090896;28;20889;-70
2023/11/19 00:24:31;;;;;;;1.50;0.90;;;;;;;6.85;100.00;101614.97;2089248;28;20284;-70
2023/11/19 00:25:32;;;;;;;1.83;1.07;;;;;;;6.49;100.00;101544.28;2096374;28;20688;-70
2023/11/19 00:26:32;;;;;;;1.03;0.83;;;;;;;6.92;100.00;101609.53;2096817;28;20970;-70
2023/11/19 00:27:32;;;;;;;1.00;0.80;;;;;;;6.92;100.00;101610.28;2089071;28;20173;-70
2023/11/19 00:28:34;;;;;;;1.63;0.87;;;;;;;6.99;100.00;101618.63;2089252;28;20617;-70
2023/11/19 00:29:34;;;;;;;1.65;0.80;;;;;;;6.96;100.00;101616.63;2096591;28;20185;-70
2023/11/19 00:30:34;;;;;;;2.53;1.00;;;;;;;7.02;100.00;101620.59;2096516;28;20653;-70
2023/11/19 00:31:35;;;;;;;1.60;0.83;;;;;;;7.07;100.00;101620.25;2097444;28;20180;-70
2023/11/19 00:32:38;;;;;;;1.23;0.82;;;;;;;7.01;100.00;101626.50;2093839;28;20245;-70
2023/11/19 00:33:39;;;;;;;1.52;0.90;;;;;;;6.97;100.00;101618.22;2090478;28;20189;-70
2023/11/19 00:34:39;;;;;;;1.80;0.93;;;;;;;6.92;100.00;101621.31;2095662;28;20278;-70
2023/11/19 00:35:40;;;;;;;1.20;0.80;;;;;;;6.95;100.00;101622.53;2088835;28;20206;-70
2023/11/19 00:36:40;;;;;;;1.10;0.87;;;;;;;6.99;100.00;101615.06;2097420;28;20171;-70
2023/11/19 00:37:42;;;;;;;1.13;0.73;;;;;;;6.99;100.00;101615.06;2090356;28;20750;-70
2023/11/19 00:38:43;;;;;;;1.08;0.80;;;;;;;6.71;100.00;101566.06;2089054;28;20215;-70
2023/11/19 00:39:43;;;;;;;1.20;0.80;;;;;;;6.97;100.00;101607.19;2092736;28;20249;-70
2023/11/19 00:40:44;;;;;;;4.03;0.97;;;;;;;7.01;100.00;101618.22;2097443;28;20172;-70
2023/11/19 00:41:46;;;;;;;1.50;0.87;;;;;;;6.82;100.00;101582.69;2096184;28;20171;-70
2023/11/19 00:42:46;;;;;;;2.80;1.00;;;;;;;7.04;100.00;101611.94;2089379;28;20638;-70
2023/11/19 00:43:48;;;;;;;5.00;0.97;;;;;;;6.99;100.00;101606.81;2096444;28;20539;-70
2023/11/19 00:44:50;;;;;;;1.30;0.70;;;;;;;7.13;100.00;101615.16;2095783;28;20191;-70
2023/11/19 00:45:51;;;;;;;1.70;1.10;;;;;;;7.14;100.00;101613.97;2096172;28;20191;-70
2023/11/19 00:46:51;;;;;;;0.90;0.70;;;;;;;7.18;100.00;101620.31;2088971;28;20201;-70
2023/11/19 00:47:52;;;;;;;1.77;1.10;;;;;;;7.20;100.00;101620.72;2088032;28;20651;-70
2023/11/19 00:48:52;;;;;;;1.37;1.00;;;;;;;7.20;100.00;101623.47;2089011;28;20191;-70
2023/11/19 00:49:53;;;;;;;0.87;0.73;;;;;;;7.21;100.00;101630.56;2089173;28;20642;-70
2023/11/19 00:50:53;;;;;;;1.80;0.67;;;;;;;7.19;100.00;101633.72;2089215;28;20184;-70
2023/11/19 00:51:54;;;;;;;1.57;1.07;;;;;;;7.19;100.00;101625.44;2089199;28;20232;-70
2023/11/19 00:52:54;;;;;;;1.70;1.00;;;;;;;6.89;100.00;101593.75;2090469;28;20194;-70
2023/11/19 00:53:55;;;;;;;1.70;0.87;;;;;;;7.18;100.00;101639.63;2096277;28;20188;-70
2023/11/19 00:54:56;;;;;;;1.30;0.90;;;;;;;6.83;100.00;101606.31;2089007;28;20188;-70
2023/11/19 00:55:57;;;;;;;1.30;0.87;;;;;;;7.06;100.00;101640.72;2096620;28;20211;-70
2023/11/19 00:56:57;;;;;;;0.83;0.73;;;;;;;6.73;100.00;101582.22;2097086;28;20449;-70
2023/11/19 00:57:58;;;;;;;1.50;0.90;;;;;;;7.09;100.00;101642.72;2097345;28;20204;-70
2023/11/19 00:58:59;;;;;;;1.83;0.97;;;;;;;7.05;100.00;101644.66;2094398;28;20551;-70
2023/11/19 01:00:00;;;;;;;1.17;0.87;;;;;;;7.06;100.00;101651.75;2100686;28;20218;-70
2023/11/19 01:01:00;;;;;;;1.77;0.73;;;;;;;7.04;100.00;101636.75;2105883;28;20412;-70
2023/11/19 01:02:06;;;;;;;3.80;0.90;;;;;;;7.03;100.00;101644.22;2090714;28;20187;-70
2023/11/19 01:03:07;;;;;;;1.67;1.00;;;;;;;7.00;100.00;101628.47;2090972;28;20169;-70
2023/11/19 01:04:08;;;;;;;1.30;0.93;;;;;;;6.83;100.00;101607.06;2090137;28;20444;-70
2023/11/19 01:05:09;;;;;;;1.97;1.17;;;;;;;7.03;100.00;101633.19;2090463;28;20502;-70
2023/11/19 01:06:09;;;;;;;1.47;0.97;;;;;;;7.10;100.00;101635.22;2090644;28;20495;-70
2023/11/19 01:07:12;;;;;;;1.43;1.13;;;;;;;7.12;100.00;101630.91;2094406;28;20216;-70
2023/11/19 01:08:13;;;;;;;1.70;0.80;;;;;;;7.12;100.00;101639.16;2096143;28;20200;-69
2023/11/19 01:09:14;;;;;;;2.03;1.20;;;;;;;7.14;100.00;101639.59;2090565;28;20969;-69
2023/11/19 01:10:18;;;;;;;7.27;1.27;;;;;;;7.13;100.00;101631.69;2091047;28;20571;-70
2023/11/19 01:11:22;;;;;;;1.37;0.80;;;;;;;7.05;100.00;101636.38;2099172;28;20510;-70
2023/11/19 01:12:23;;;;;;;1.20;0.97;;;;;;;7.01;100.00;101643.03;2099139;28;20949;-70
2023/11/19 01:13:24;;;;;;;1.43;0.90;;;;;;;6.98;100.00;101636.31;2091506;28;20858;-69
2023/11/19 01:14:25;;;;;;;1.43;0.90;;;;;;;7.03;100.00;101641.47;2095458;28;20566;-70
2023/11/19 01:15:26;;;;;;;0.93;0.77;;;;;;;7.03;100.00;101643.44;2094779;28;20536;-70
2023/11/19 01:16:26;;;;;;;1.30;1.10;;;;;;;6.28;100.00;101544.91;2090409;28;20187;-70
2023/11/19 01:17:27;;;;;;;1.77;1.03;;;;;;;7.03;100.00;101651.72;2091822;28;20227;-70
2023/11/19 01:18:27;;;;;;;1.63;0.80;;;;;;;7.01;100.00;101643.81;2099052;28;20179;-70
2023/11/19 01:19:28;;;;;;;1.13;0.90;;;;;;;6.99;100.00;101650.91;2098998;28;20240;-70
2023/11/19 01:20:28;;;;;;;1.63;1.00;;;;;;;6.30;100.00;101550.81;2091601;28;20206;-70
2023/11/19 01:21:29;;;;;;;1.20;0.87;;;;;;;6.92;100.00;101643.38;2096227;28;20198;-70
2023/11/19 01:22:30;;;;;;;1.40;0.87;;;;;;;6.83;100.00;101634.63;2094263;28;20191;-70
2023/11/19 01:23:30;;;;;;;2.40;1.00;;;;;;;6.92;100.00;101645.34;2090285;28;20726;-70
2023/11/19 01:24:31;;;;;;;1.63;0.97;;;;;;;6.89;100.00;101646.91;2093330;28;20180;-70
2023/11/19 01:25:31;;;;;;;1.37;0.90;;;;;;;6.91;100.00;101641.78;2098237;28;20167;-70
2023/11/19 01:26:32;;;;;;;2.00;1.10;;;;;;;6.79;100.00;101633.03;2090665;28;20289;-70
2023/11/19 01:27:34;;;;;;;2.97;0.97;;;;;;;6.85;100.00;101643.31;2090841;28;20175;-69
2023/11/19 01:28:35;;;;;;;1.30;0.98;;;;;;;6.78;100.00;101628.69;2090933;28;20222;-69
2023/11/19 01:29:35;;;;;;;1.87;1.20;;;;;;;6.91;100.00;101638.22;2100028;28;20186;-69
2023/11/19 01:30:35;;;;;;;1.30;0.90;;;;;;;6.90;100.00;101631.16;2100432;28;20258;-69
2023/11/19 01:31:37;;;;;;;1.53;0.70;;;;;;;6.69;100.00;101608.94;2090883;28;20188;-70
2023/11/19 01:32:37;;;;;;;1.15;0.73;;;;;;;6.90;100.00;101625.63;2090697;28;20197;-70
2023/11/19 01:33:39;;;;;;;2.83;1.00;;;;;;;6.94;100.00;101624.50;2098146;28;20192;-70
2023/11/19 01:34:41;;;;;;;1.20;0.90;;;;;;;6.97;100.00;101633.97;2094242;28;20212;-70
2023/11/19 01:35:41;;;;;;;2.95;0.82;;;;;;;6.90;100.00;101628.38;2098781;28;20446;-69
2023/11/19 01:36:41;;;;;;;2.03;0.90;;;;;;;6.86;100.00;101639.38;2098752;28;20184;-69
2023/11/19 01:37:42;;;;;;;1.90;1.07;;;;;;;6.64;100.00;101620.31;2095843;28;20201;-69
2023/11/19 01:38:43;;;;;;;1.97;1.10;;;;;;;6.70;100.00;101607.78;2092029;28;20211;-69
2023/11/19 01:39:44;;;;;;;2.00;1.07;;;;;;;6.90;100.00;101639.41;2098612;28;20284;-70
2023/11/19 01:40:45;;;;;;;1.87;0.97;;;;;;;6.90;100.00;101651.22;2098936;28;20987;-70
2023/11/19 01:41:45;;;;;;;1.10;0.80;;;;;;;6.89;100.00;101637.84;2091298;28;20899;-69
2023/11/19 01:42:46;;;;;;;1.10;0.83;;;;;;;6.84;100.00;101639.00;2090430;28;20198;-70
2023/11/19 01:43:47;;;;;;;1.70;1.20;;;;;;;6.88;100.00;101636.25;2095125;28;20594;-70
2023/11/19 01:44:58;;;;;;;1.83;1.00;;;;;;;6.37;100.00;101558.34;2094771;28;20533;-70
2023/11/19 01:45:59;;;;;;;0.98;0.73;;;;;;;6.88;100.00;101641.78;2094873;28;20216;-70
2023/11/19 01:47:00;;;;;;;1.17;0.90;;;;;;;6.91;100.00;101644.53;2095724;28;20203;-70
2023/11/19 01:48:06;;;;;;;1.55;1.13;;;;;;;6.50;100.00;101574.19;2090379;28;20188;-70
2023/11/19 01:49:07;;;;;;;0.73;0.68;;;;;;;6.89;100.00;101637.84;2091521;28;20681;-70
2023/11/19 01:50:08;;;;;;;1.60;0.80;;;;;;;6.90;100.00;101637.47;2098668;28;20183;-70
2023/11/19 01:51:09;;;;;;;1.50;0.83;;;;;;;6.91;100.00;101660.28;2090898;28;20203;-70
2023/11/19 01:52:10;;;;;;;1.73;0.87;;;;;;;6.92;100.00;101637.09;2097673;28;20530;-70
2023/11/19 01:53:10;;;;;;;2.33;1.00;;;;;;;6.63;100.00;101600.28;2104880;28;20276;-70
2023/11/19 01:54:12;;;;;;;1.40;1.00;;;;;;;6.88;100.00;101639.78;2102396;28;20647;-69
2023/11/19 01:55:13;;;;;;;2.80;1.23;;;;;;;6.82;100.00;101633.06;2101839;28;20189;-69
2023/11/19 01:56:15;;;;;;;1.40;1.00;;;;;;;6.40;100.00;101560.34;2104944;28;20211;-69
2023/11/19 01:57:16;;;;;;;1.48;0.90;;;;;;;6.80;100.00;101640.91;2098766;28;20184;-70
2023/11/19 01:58:17;;;;;;;1.60;1.00;;;;;;;6.79;100.00;101630.28;2098723;28;20183;-70
2023/11/19 01:59:17;;;;;;;1.40;0.90;;;;;;;6.86;100.00;101644.09;2091115;28;20188;-70
2023/11/19 02:00:19;;;;;;;1.47;0.83;;;;;;;6.82;100.00;101633.06;2096335;28;20207;-70
2023/11/19 02:01:20;;;;;;;1.80;1.20;;;;;;;6.49;100.00;101577.31;2093860;28;20184;-70
2023/11/19 02:02:20;;;;;;;2.67;1.10;;;;;;;6.88;100.00;101639.00;2094019;28;20200;-70
2023/11/19 02:03:21;;;;;;;1.63;0.93;;;;;;;6.82;100.00;101638.56;2096040;28;20263;-70
2023/11/19 02:04:22;;;;;;;1.60;0.97;;;;;;;6.89;100.00;101633.13;2090100;28;20178;-70
2023/11/19 02:05:23;;;;;;;1.43;0.77;;;;;;;6.88;100.00;101639.78;2090232;28;20220;-70
2023/11/19 02:06:25;;;;;;;1.67;1.00;;;;;;;6.91;100.00;101633.53;2090166;28;20662;-70
2023/11/19 02:07:25;;;;;;;2.17;0.80;;;;;;;6.96;100.00;101637.88;2097608;28;20267;-70
2023/11/19 02:08:26;;;;;;;2.40;1.17;;;;;;;6.95;100.00;101633.53;2092533;28;20505;-70
2023/11/19 02:09:27;;;;;;;1.53;1.00;;;;;;;6.94;100.00;101635.53;2089982;28;20300;-70
2023/11/19 02:10:27;;;;;;;1.80;1.37;;;;;;;6.98;100.00;101633.56;2090318;28;20200;-70
2023/11/19 02:11:29;;;;;;;2.63;1.03;;;;;;;6.99;100.00;101634.38;2090374;28;20282;-70
2023/11/19 02:12:33;;;;;;;1.25;1.13;;;;;;;6.93;100.00;101631.16;2091237;28;20233;-70
2023/11/19 02:13:36;;;;;;;1.90;1.00;;;;;;;6.96;100.00;101632.34;2097535;28;20188;-70
2023/11/19 02:14:36;;;;;;;1.52;0.90;;;;;;;6.93;100.00;101638.66;2090399;28;20182;-70
2023/11/19 02:15:37;;;;;;;1.47;1.10;;;;;;;6.72;100.00;101608.97;2090177;28;20389;-70
2023/11/19 02:16:37;;;;;;;1.30;1.10;;;;;;;6.72;100.00;101621.97;2090071;28;20322;-70
2023/11/19 02:17:38;;;;;;;1.67;1.10;;;;;;;6.62;100.00;101604.16;2095256;28;20249;-70
2023/11/19 02:18:38;;;;;;;3.90;1.20;;;;;;;6.81;100.00;101630.72;2094679;28;20295;-70
2023/11/19 02:19:39;;;;;;;1.90;1.23;;;;;;;6.81;100.00;101630.72;2092455;28;20208;-70
2023/11/19 02:20:40;;;;;;;1.90;1.30;;;;;;;6.73;100.00;101623.53;2097322;28;20204;-70
2023/11/19 02:21:41;;;;;;;1.43;1.00;;;;;;;6.70;100.00;101625.09;2090346;28;20563;-70
2023/11/19 02:22:42;;;;;;;2.40;1.13;;;;;;;6.45;100.00;101584.75;2090177;28;20421;-70
2023/11/19 02:23:42;;;;;;;4.10;1.17;;;;;;;6.69;100.00;101619.97;2090076;28;20969;-70
2023/11/19 02:24:44;;;;;;;1.63;0.90;;;;;;;6.65;100.00;101630.97;2095615;28;20205;-70
2023/11/19 02:25:52;;;;;;;1.63;1.05;;;;;;;6.50;100.00;101603.69;2098398;28;20171;-70
2023/11/19 02:27:19;;;;;;;2.20;0.90;;;;;;;6.54;100.00;101613.56;2095035;28;20619;-70
2023/11/19 02:28:19;;;;;;;1.40;1.07;;;;;;;6.43;100.00;101587.91;2090206;28;20448;-70
2023/11/19 02:29:20;;;;;;;1.63;1.20;;;;;;;6.59;100.00;101609.66;2090412;28;20427;-70
2023/11/19 02:30:20;;;;;;;1.27;0.90;;;;;;;6.54;100.00;101618.28;2090075;28;20207;-70
2023/11/19 02:31:22;;;;;;;1.67;0.90;;;;;;;6.51;100.00;101613.53;2090343;28;20205;-70
2023/11/19 02:32:23;;;;;;;1.47;1.13;;;;;;;6.43;100.00;101611.88;2090342;28;20232;-70
2023/11/19 02:33:24;;;;;;;1.37;1.03;;;;;;;6.28;100.00;101593.66;2090012;28;20483;-70
2023/11/19 02:34:25;;;;;;;2.15;1.00;;;;;;;6.39;100.00;101620.13;2089944;28;20185;-70
2023/11/19 02:35:31;;;;;;;1.30;1.00;;;;;;;6.11;100.00;101580.53;2089972;28;20228;-70
2023/11/19 02:36:32;;;;;;;2.22;1.30;;;;;;;6.36;100.00;101626.38;2090213;28;20641;-70
2023/11/19 02:37:32;;;;;;;2.23;1.10;;;;;;;5.96;100.00;101565.88;2090136;28;20550;-70
2023/11/19 02:38:34;;;;;;;1.77;0.90;;;;;;;6.32;100.00;101628.31;2092728;28;20205;-70
2023/11/19 02:39:35;;;;;;;1.38;0.90;;;;;;;5.43;100.00;101492.97;2096419;28;20185;-70
2023/11/19 02:40:35;;;;;;;2.03;1.20;;;;;;;6.24;100.00;101628.63;2089477;28;20701;-70
2023/11/19 02:41:35;;;;;;;1.73;0.90;;;;;;;6.26;100.00;101626.28;2090344;28;20178;-70
2023/11/19 02:42:36;;;;;;;2.47;1.00;;;;;;;6.24;100.00;101623.13;2096572;28;20220;-70
2023/11/19 02:43:38;;;;;;;2.10;1.20;;;;;;;6.21;100.00;101612.88;2091973;28;20331;-70
2023/11/19 02:44:39;;;;;;;2.47;1.15;;;;;;;6.18;100.00;101621.88;2098794;28;20188;-70
2023/11/19 02:45:40;;;;;;;2.17;1.20;;;;;;;6.15;100.00;101617.16;2100076;28;20232;-69
2023/11/19 02:46:42;;;;;;;2.13;1.23;;;;;;;6.15;100.00;101617.16;2093811;28;20652;-69
2023/11/19 02:47:44;;;;;;;2.08;1.20;;;;;;;6.15;100.00;101617.91;2105812;28;20170;-69
2023/11/19 02:48:45;;;;;;;4.13;1.48;;;;;;;6.16;100.00;101610.47;2098402;28;20248;-70
2023/11/19 02:49:46;;;;;;;2.05;1.40;;;;;;;6.15;100.00;101612.41;2090164;28;20188;-70
2023/11/19 02:50:47;;;;;;;1.90;1.13;;;;;;;6.15;100.00;101601.41;2089821;28;20196;-70
2023/11/19 02:51:48;;;;;;;2.20;1.40;;;;;;;6.11;100.00;101602.56;2102036;28;20212;-69
2023/11/19 02:52:49;;;;;;;1.83;1.00;;;;;;;6.13;100.00;101606.50;2106851;28;20180;-69
2023/11/19 02:53:49;;;;;;;2.20;1.30;;;;;;;6.15;100.00;101601.41;2106191;28;20215;-69
2023/11/19 02:54:50;;;;;;;1.77;1.17;;;;;;;6.13;100.00;101602.97;2104435;28;20203;-69
2023/11/19 02:55:51;;;;;;;1.80;1.27;;;;;;;6.08;100.00;101606.06;2096838;28;20180;-69
2023/11/19 02:56:55;;;;;;;1.75;1.20;;;;;;;5.87;100.00;101570.88;2090049;28;20624;-69
2023/11/19 02:57:58;;;;;;;3.65;1.50;;;;;;;6.04;100.00;101608.78;2098053;28;20192;-69
2023/11/19 02:58:59;;;;;;;2.28;1.30;;;;;;;6.04;100.00;101597.75;2105426;28;20344;-69
2023/11/19 02:59:59;;;;;;;2.13;1.10;;;;;;;5.54;100.00;101526.88;2106682;28;20211;-69
2023/11/19 03:01:10;;;;;;;2.07;1.20;;;;;;;6.08;100.00;101622.56;2106561;28;20645;-69
2023/11/19 03:02:11;;;;;;;2.13;1.30;;;;;;;6.14;100.00;101624.59;2102836;28;20186;-69
2023/11/19 03:03:20;;;;;;;2.00;1.30;;;;;;;6.17;100.00;101623.84;2100649;28;20181;-69
2023/11/19 03:04:20;;;;;;;1.95;1.13;;;;;;;5.42;100.00;101512.59;2103919;28;20165;-69
2023/11/19 03:05:21;;;;;;;1.57;1.10;;;;;;;6.20;100.00;101628.59;2099087;28;20213;-70
2023/11/19 03:06:24;;;;;;;2.33;1.30;;;;;;;6.17;100.00;101634.06;2106696;28;20175;-70
2023/11/19 03:07:24;;;;;;;2.25;1.40;;;;;;;6.14;100.00;101623.78;2106697;28;20241;-70
2023/11/19 03:08:25;;;;;;;1.70;1.30;;;;;;;6.15;100.00;101636.41;2100210;28;20192;-70
2023/11/19 03:09:25;;;;;;;2.27;1.30;;;;;;;6.14;100.00;101627.34;2093081;28;20184;-70
2023/11/19 03:10:26;;;;;;;2.53;1.37;;;;;;;5.56;100.00;101548.50;2098037;28;20185;-70
2023/11/19 03:11:26;;;;;;;2.80;1.57;;;;;;;6.19;100.00;101642.72;2097889;28;20603;-70
2023/11/19 03:12:27;;;;;;;1.77;1.30;;;;;;;6.20;100.00;101639.59;2097930;28;20173;-70
2023/11/19 03:13:27;;;;;;;2.40;1.30;;;;;;;6.14;100.00;101641.13;2097245;28;20183;-70
2023/11/19 03:14:28;;;;;;;2.17;1.37;;;;;;;6.10;100.00;101631.25;2089352;28;20234;-70
2023/11/19 03:15:28;;;;;;;2.73;1.60;;;;;;;6.24;100.00;101651.44;2104032;28;20182;-70
2023/11/19 03:16:29;;;;;;;3.20;1.60;;;;;;;6.19;100.00;101650.97;2103605;28;20647;-70
2023/11/19 03:17:29;;;;;;;2.63;1.70;;;;;;;6.17;100.00;101653.31;2106646;28;20174;-70
2023/11/19 03:18:30;;;;;;;4.33;1.40;;;;;;;6.16;100.00;101655.28;2104002;28;20178;-70
2023/11/19 03:19:30;;;;;;;2.00;1.47;;;;;;;6.17;100.00;101648.63;2097535;28;20217;-70
2023/11/19 03:20:30;;;;;;;2.03;1.20;;;;;;;6.21;100.00;101654.94;2089793;28;20179;-70
2023/11/19 03:21:32;;;;;;;2.30;1.40;;;;;;;6.19;100.00;101660.03;2096509;28;20610;-70
2023/11/19 03:22:36;;;;;;;1.98;1.35;;;;;;;5.40;100.00;101531.44;2092648;28;20681;-70
2023/11/19 03:23:36;;;;;;;2.33;1.27;;;;;;;5.47;100.00;101568.03;2089433;28;20183;-70
2023/11/19 03:24:37;;;;;;;2.57;1.30;;;;;;;6.08;100.00;101658.34;2090951;28;20190;-70
2023/11/19 03:25:37;;;;;;;1.80;1.20;;;;;;;6.07;100.00;101656.75;2096250;28;20166;-70
2023/11/19 03:26:38;;;;;;;2.80;1.23;;;;;;;5.79;100.00;101607.69;2090098;28;20228;-69
2023/11/19 03:27:39;;;;;;;2.07;1.40;;;;;;;6.14;100.00;101652.13;2089971;28;20603;-70
2023/11/19 03:28:39;;;;;;;2.25;1.48;;;;;;;6.10;100.00;101654.03;2089756;28;20233;-70
2023/11/19 03:29:40;;;;;;;3.80;1.63;;;;;;;6.15;100.00;101650.19;2089969;28;20224;-69
2023/11/19 03:30:41;;;;;;;2.57;1.20;;;;;;;6.13;100.00;101638.72;2093914;28;20201;-70
2023/11/19 03:31:44;;;;;;;3.17;1.10;;;;;;;5.85;100.00;101597.19;2098204;28;20179;-70
2023/11/19 03:32:45;;;;;;;2.80;1.25;;;;;;;5.97;100.00;101621.66;2095676;28;20190;-70
2023/11/19 03:33:46;;;;;;;1.67;1.23;;;;;;;6.16;100.00;101646.25;2089378;28;20173;-70
2023/11/19 03:34:47;;;;;;;1.80;1.20;;;;;;;6.16;100.00;101643.50;2093617;28;20171;-70
2023/11/19 03:35:47;;;;;;;2.43;1.30;;;;;;;6.16;100.00;101643.50;2105751;28;20194;-70
2023/11/19 03:36:48;;;;;;;1.87;1.00;;;;;;;6.15;100.00;101639.16;2099103;28;20365;-70
2023/11/19 03:37:50;;;;;;;1.67;1.10;;;;;;;6.19;100.00;101643.53;2103924;28;20183;-70
2023/11/19 03:38:52;;;;;;;2.03;1.30;;;;;;;6.02;100.00;101610.31;2101891;28;20190;-70
2023/11/19 03:39:54;;;;;;;2.20;1.20;;;;;;;5.38;100.00;101520.03;2097782;28;20197;-70
2023/11/19 03:40:55;;;;;;;2.20;1.30;;;;;;;5.88;100.00;101582.66;2096210;28;20272;-70
2023/11/19 03:41:55;;;;;;;1.93;1.30;;;;;;;6.25;100.00;101631.00;2090213;28;20416;-69
2023/11/19 03:42:58;;;;;;;2.87;1.50;;;;;;;5.58;100.00;101537.91;2106326;28;20169;-70
2023/11/19 03:43:58;;;;;;;2.08;1.38;;;;;;;6.27;100.00;101639.69;2098077;28;20194;-70
2023/11/19 03:44:59;;;;;;;1.87;1.30;;;;;;;6.28;100.00;101637.72;2096949;28;20705;-70
2023/11/19 03:45:59;;;;;;;2.47;1.40;;;;;;;6.25;100.00;101631.00;2093295;28;20240;-70
2023/11/19 03:47:00;;;;;;;1.77;1.23;;;;;;;6.08;100.00;101608.81;2095298;28;20469;-70
2023/11/19 03:48:00;;;;;;;2.63;1.27;;;;;;;5.89;100.00;101576.78;2091231;28;20177;-70
2023/11/19 03:49:01;;;;;;;2.30;1.60;;;;;;;6.10;100.00;101621.00;2097977;28;20660;-70
2023/11/19 03:50:03;;;;;;;1.70;1.13;;;;;;;6.17;100.00;101629.38;2089864;28;20181;-70
2023/11/19 03:51:04;;;;;;;3.90;1.48;;;;;;;6.15;100.00;101631.69;2096705;28;20184;-70
2023/11/19 03:52:04;;;;;;;2.50;1.37;;;;;;;6.06;100.00;101624.91;2092198;28;20223;-70
2023/11/19 03:53:05;;;;;;;3.00;1.43;;;;;;;6.08;100.00;101626.13;2089561;28;20629;-70
2023/11/19 03:54:06;;;;;;;1.43;1.07;;;;;;;6.10;100.00;101632.03;2089326;28;20183;-70
2023/11/19 03:55:08;;;;;;;1.70;1.30;;;;;;;5.52;100.00;101528.41;2089297;28;20195;-70
2023/11/19 03:56:10;;;;;;;1.87;1.27;;;;;;;6.04;100.00;101616.22;2089642;28;20429;-70
2023/11/19 03:57:11;;;;;;;1.75;1.10;;;;;;;6.15;100.00;101631.69;2089454;28;20417;-70
2023/11/19 03:58:12;;;;;;;2.55;1.65;;;;;;;6.16;100.00;101630.50;2096698;28;20177;-70
2023/11/19 03:59:12;;;;;;;2.97;1.83;;;;;;;6.20;100.00;101627.81;2103584;28;20185;-70
2023/11/19 04:00:14;;;;;;;1.87;1.10;;;;;;;6.21;100.00;101629.41;2096565;28;20702;-70
2023/11/19 04:01:14;;;;;;;2.33;1.30;;;;;;;6.16;100.00;101619.50;2093304;28;20698;-70
2023/11/19 04:02:15;;;;;;;1.73;1.37;;;;;;;6.23;100.00;101630.59;2097766;28;20177;-70
2023/11/19 04:03:16;;;;;;;2.53;1.70;;;;;;;6.20;100.00;101634.09;2097279;28;20178;-70
2023/11/19 04:04:16;;;;;;;2.57;1.53;;;;;;;6.20;100.00;101636.06;2097587;28;20269;-70
2023/11/19 04:05:18;;;;;;;2.40;1.50;;;;;;;5.70;100.00;101563.19;2097443;28;20182;-70
2023/11/19 04:06:19;;;;;;;2.70;1.60;;;;;;;6.18;100.00;101632.88;2097697;28;20195;-70
2023/11/19 04:07:20;;;;;;;2.07;1.37;;;;;;;6.15;100.00;101628.94;2097874;28;20174;-70
2023/11/19 04:08:20;;;;;;;3.28;1.50;;;;;;;5.56;100.00;101529.25;2093488;28;20185;-70
2023/11/19 04:09:21;;;;;;;1.40;1.20;;;;;;;6.07;100.00;101609.97;2089358;28;20190;-70
2023/11/19 04:10:22;;;;;;;5.37;1.63;;;;;;;6.22;100.00;101628.22;2090775;28;20255;-70
2023/11/19 04:11:22;;;;;;;1.90;1.53;;;;;;;6.08;100.00;101603.28;2097816;28;20283;-70
2023/11/19 04:12:23;;;;;;;2.60;1.50;;;;;;;6.24;100.00;101620.34;2097811;28;20257;-70
2023/11/19 04:13:24;;;;;;;3.00;1.37;;;;;;;6.21;100.00;101624.66;2097668;28;20199;-70
2023/11/19 04:14:25;;;;;;;2.80;1.70;;;;;;;5.36;100.00;101498.41;2091410;28;20183;-70
2023/11/19 04:15:25;;;;;;;2.53;1.50;;;;;;;6.15;100.00;101623.44;2089101;28;20229;-70
2023/11/19 04:16:28;;;;;;;3.03;1.60;;;;;;;6.14;100.00;101623.78;2089517;28;20169;-70
2023/11/19 04:17:28;;;;;;;2.22;1.45;;;;;;;6.12;100.00;101623.41;2091887;28;20647;-70
2023/11/19 04:18:29;;;;;;;2.23;1.53;;;;;;;6.09;100.00;101613.13;2096910;28;20601;-70
2023/11/19 04:19:29;;;;;;;2.90;1.80;;;;;;;5.89;100.00;101589.75;2089346;28;20177;-70
2023/11/19 04:20:31;;;;;;;3.03;1.77;;;;;;;6.03;100.00;101609.94;2089548;28;20558;-70
2023/11/19 04:21:32;;;;;;;3.15;1.73;;;;;;;6.03;100.00;101620.16;2095942;28;20193;-69
2023/11/19 04:22:32;;;;;;;3.00;2.03;;;;;;;5.37;100.00;101516.47;2103052;28;20206;-70
2023/11/19 04:23:33;;;;;;;2.47;1.80;;;;;;;5.98;100.00;101624.03;2097621;28;20446;-70
2023/11/19 04:24:34;;;;;;;2.60;1.50;;;;;;;5.95;100.00;101632.28;2093986;28;20188;-70
2023/11/19 04:25:38;;;;;;;3.70;1.73;;;;;;;5.96;100.00;101626.41;2095706;28;20175;-70
2023/11/19 04:26:42;;;;;;;2.58;1.92;;;;;;;5.83;100.00;101624.25;2090905;28;20224;-70
2023/11/19 04:27:43;;;;;;;2.70;1.45;;;;;;;5.72;100.00;101618.63;2106122;28;20171;-70
2023/11/19 04:28:43;;;;;;;2.50;1.63;;;;;;;5.87;100.00;101641.59;2097586;28;20183;-70
2023/11/19 04:29:45;;;;;;;3.13;1.83;;;;;;;5.82;100.00;101641.94;2104759;28;20217;-70
2023/11/19 04:30:46;;;;;;;3.03;1.70;;;;;;;5.83;100.00;101638.81;2100039;28;20172;-70
2023/11/19 04:31:46;;;;;;;2.57;1.70;;;;;;;5.85;100.00;101657.69;2097767;28;20177;-70
2023/11/19 04:32:48;;;;;;;4.03;2.13;;;;;;;5.86;100.00;101651.03;2095055;28;20567;-70
2023/11/19 04:33:49;;;;;;;3.05;1.55;;;;;;;5.86;100.00;101657.34;2090695;28;20233;-70
2023/11/19 04:34:49;;;;;;;2.30;1.63;;;;;;;5.51;100.00;101598.31;2101080;28;20652;-69
2023/11/19 04:35:50;;;;;;;2.13;1.67;;;;;;;5.91;100.00;101656.19;2089085;28;20184;-69
2023/11/19 04:36:50;;;;;;;4.03;2.37;;;;;;;5.85;100.00;101666.72;2089024;28;20180;-69
2023/11/19 04:37:50;;;;;;;3.23;1.90;;;;;;;5.87;100.00;101658.09;2095124;28;20581;-69
2023/11/19 04:38:51;;;;;;;3.27;1.90;;;;;;;5.93;100.00;101651.09;2097239;28;20680;-69
2023/11/19 04:39:51;;;;;;;2.87;1.90;;;;;;;5.68;100.00;101609.53;2097403;28;20206;-69
2023/11/19 04:40:52;;;;;;;4.03;1.80;;;;;;;5.64;100.00;101602.41;2097193;28;20595;-70
2023/11/19 04:41:53;;;;;;;2.70;1.80;;;;;;;5.98;100.00;101662.56;2097669;28;20179;-70
2023/11/19 04:42:53;;;;;;;2.90;1.90;;;;;;;5.28;100.00;101554.44;2089518;28;20176;-70
2023/11/19 04:43:54;;;;;;;2.23;1.73;;;;;;;5.73;100.00;101603.69;2101187;28;20202;-70